createdAt,value
2022-10-29T00:00:06.173Z,46.05
2022-10-29T00:02:56.516Z,40.85
2022-10-29T00:05:24.169Z,40.58
2022-10-29T00:07:52.119Z,46.25
2022-10-29T00:10:19.914Z,36.67
2022-10-29T00:12:47.760Z,37.58
2022-10-29T00:15:15.670Z,42.55
2022-10-29T00:17:43.246Z,50.17
2022-10-29T00:20:11.395Z,49.67
2022-10-29T00:22:39.312Z,50.25
2022-10-29T00:25:07.154Z,47.95
2022-10-29T00:27:34.698Z,41.17
2022-10-29T00:30:02.510Z,47.30
2022-10-29T00:32:30.575Z,44.28
2022-10-29T00:34:58.126Z,44.50
2022-10-29T00:37:27.351Z,44.00
2022-10-29T00:39:54.835Z,48.50
2022-10-29T00:42:24.250Z,44.20
2022-10-29T00:44:52.071Z,41.22
2022-10-29T00:47:26.902Z,38.03
2022-10-29T00:49:58.008Z,39.17
2022-10-29T00:52:27.508Z,36.73
2022-10-29T00:54:55.986Z,39.47
2022-10-29T00:57:28.215Z,38.65
2022-10-29T00:59:55.891Z,36.08
2022-10-29T01:02:25.156Z,37.38
2022-10-29T01:04:53.699Z,40.05
2022-10-29T01:07:22.138Z,38.78
2022-10-29T01:09:50.318Z,35.35
2022-10-29T01:12:24.422Z,34.65
2022-10-29T01:15:10.617Z,34.22
2022-10-29T01:17:46.227Z,33.13
2022-10-29T01:20:29.590Z,31.27
2022-10-29T01:23:12.840Z,45.20
2022-10-29T01:25:46.578Z,42.28
2022-10-29T01:28:17.226Z,31.17
2022-10-29T01:30:56.854Z,31.13
2022-10-29T01:33:43.457Z,29.17
2022-10-29T01:36:26.020Z,27.15
2022-10-29T01:38:58.055Z,27.38
2022-10-29T01:44:06.366Z,30.05
2022-10-29T01:46:38.641Z,28.13
2022-10-29T01:49:08.696Z,27.25
2022-10-29T01:51:37.303Z,25.52
2022-10-29T01:54:08.023Z,30.40
2022-10-29T01:56:35.666Z,37.35
2022-10-29T01:59:06.097Z,37.17
2022-10-29T02:01:36.972Z,33.97
2022-10-29T02:04:22.539Z,37.75
2022-10-29T02:07:08.450Z,35.00
2022-10-29T02:09:36.327Z,34.20
2022-10-29T02:12:08.519Z,29.05
2022-10-29T02:14:39.075Z,33.95
2022-10-29T02:17:07.716Z,24.40
2022-10-29T02:19:36.174Z,27.25
2022-10-29T02:22:05.146Z,26.98
2022-10-29T02:24:32.998Z,24.45
2022-10-29T02:27:00.642Z,35.97
2022-10-29T02:29:28.512Z,35.42
2022-10-29T02:31:56.242Z,27.67
2022-10-29T02:34:23.783Z,28.10
2022-10-29T02:36:51.590Z,27.02
2022-10-29T02:39:19.263Z,26.20
2022-10-29T02:41:47.172Z,25.45
2022-10-29T02:44:14.732Z,30.10
2022-10-29T02:46:42.398Z,26.58
2022-10-29T02:49:10.122Z,30.30
2022-10-29T02:51:38.514Z,32.70
2022-10-29T02:54:06.192Z,27.73
2022-10-29T02:56:34.126Z,29.27
2022-10-29T02:59:03.388Z,30.30
2022-10-29T03:01:33.217Z,28.33
2022-10-29T03:04:01.635Z,26.70
2022-10-29T03:06:29.439Z,33.58
2022-10-29T03:08:57.024Z,28.45
2022-10-29T03:11:24.825Z,25.33
2022-10-29T03:13:52.364Z,22.85
2022-10-29T03:16:20.060Z,23.52
2022-10-29T03:18:47.838Z,24.55
2022-10-29T03:21:15.562Z,28.35
2022-10-29T03:23:43.232Z,26.83
2022-10-29T03:26:11.102Z,23.63
2022-10-29T03:28:38.651Z,23.90
2022-10-29T03:31:06.439Z,22.38
2022-10-29T03:33:34.403Z,37.63
2022-10-29T03:36:03.376Z,25.55
2022-10-29T03:38:31.062Z,31.00
2022-10-29T03:40:59.284Z,26.38
2022-10-29T03:43:26.951Z,23.23
2022-10-29T03:45:55.570Z,29.83
2022-10-29T03:48:24.091Z,34.47
2022-10-29T03:50:55.457Z,29.45
2022-10-29T03:53:23.385Z,26.27
2022-10-29T03:55:52.737Z,24.88
2022-10-29T03:58:20.773Z,27.63
2022-10-29T04:00:55.849Z,28.80
2022-10-29T04:03:23.537Z,24.80
2022-10-29T04:05:51.379Z,25.77
2022-10-29T04:08:18.980Z,32.53
2022-10-29T04:10:47.665Z,27.45
2022-10-29T04:13:16.105Z,26.50
2022-10-29T04:15:44.019Z,23.77
2022-10-29T04:18:12.057Z,21.38
2022-10-29T04:21:18.623Z,22.33
2022-10-29T04:29:04.866Z,20.33
2022-10-29T04:31:32.563Z,28.20
2022-10-29T04:34:00.312Z,30.38
2022-10-29T04:36:28.065Z,20.92
2022-10-29T04:38:55.634Z,19.83
2022-10-29T04:41:24.587Z,18.77
2022-10-29T04:43:52.217Z,26.80
2022-10-29T04:46:19.797Z,38.22
2022-10-29T04:48:47.588Z,14.70
2022-10-29T04:51:22.654Z,19.45
2022-10-29T04:53:50.511Z,19.45
2022-10-29T04:56:18.617Z,21.50
2022-10-29T04:58:46.480Z,27.20
2022-10-29T05:01:14.385Z,18.80
2022-10-29T05:03:42.338Z,24.17
2022-10-29T05:06:09.989Z,74.90
2022-10-29T05:08:38.061Z,17.52
2022-10-29T05:11:06.348Z,106.55
2022-10-29T05:13:34.421Z,81.57
2022-10-29T05:16:02.171Z,13.32
2022-10-29T05:18:30.093Z,12.55
2022-10-29T05:20:58.206Z,16.52
2022-10-29T05:23:26.023Z,17.88
2022-10-29T05:25:55.846Z,26.05
2022-10-29T05:28:24.562Z,22.75
2022-10-29T05:30:53.406Z,20.20
2022-10-29T05:33:25.194Z,26.92
2022-10-29T05:35:52.986Z,24.10
2022-10-29T05:38:20.769Z,45.08
2022-10-29T05:40:48.475Z,45.97
2022-10-29T05:43:17.185Z,27.90
2022-10-29T05:45:45.562Z,29.52
2022-10-29T05:48:13.675Z,23.55
2022-10-29T05:50:41.526Z,17.92
2022-10-29T05:53:10.906Z,22.42
2022-10-29T05:55:38.911Z,10.77
2022-10-29T05:58:07.936Z,13.32
2022-10-29T06:00:36.902Z,12.82
2022-10-29T06:03:04.988Z,15.95
2022-10-29T06:05:32.636Z,11.00
2022-10-29T06:08:01.306Z,17.08
2022-10-29T06:10:29.895Z,9.60
2022-10-29T06:12:57.701Z,14.23
2022-10-29T06:15:25.403Z,14.88
2022-10-29T06:17:53.575Z,14.02
2022-10-29T06:20:21.894Z,13.23
2022-10-29T06:22:57.171Z,34.03
2022-10-29T06:25:25.562Z,22.60
2022-10-29T06:28:00.890Z,25.10
2022-10-29T06:30:28.969Z,16.52
2022-10-29T06:32:57.228Z,17.17
2022-10-29T06:35:25.165Z,16.63
2022-10-29T06:37:53.332Z,19.15
2022-10-29T06:40:21.246Z,15.95
2022-10-29T06:43:09.200Z,15.70
2022-10-29T06:45:37.002Z,13.82
2022-10-29T06:48:08.019Z,17.70
2022-10-29T06:50:35.881Z,19.50
2022-10-29T06:53:05.247Z,15.05
2022-10-29T06:55:34.070Z,15.70
2022-10-29T06:58:11.217Z,15.85
2022-10-29T07:00:39.522Z,14.02
2022-10-29T07:03:07.627Z,17.17
2022-10-29T07:05:36.306Z,13.38
2022-10-29T07:08:04.053Z,18.50
2022-10-29T07:10:33.126Z,25.20
2022-10-29T07:13:01.040Z,17.20
2022-10-29T07:15:30.716Z,18.10
2022-10-29T07:18:01.996Z,19.45
2022-10-29T07:20:30.793Z,15.18
2022-10-29T07:22:59.552Z,11.25
2022-10-29T07:25:27.191Z,14.05
2022-10-29T07:27:56.235Z,10.45
2022-10-29T07:30:24.050Z,13.95
2022-10-29T07:33:11.914Z,15.32
2022-10-29T07:35:39.512Z,11.85
2022-10-29T07:38:10.913Z,11.27
2022-10-29T07:40:47.102Z,10.35
2022-10-29T07:43:15.466Z,9.60
2022-10-29T07:45:43.625Z,10.45
2022-10-29T07:48:11.435Z,8.65
2022-10-29T07:50:39.437Z,8.60
2022-10-29T07:53:08.105Z,14.48
2022-10-29T07:55:38.967Z,10.52
2022-10-29T07:58:07.862Z,10.70
2022-10-29T08:00:37.201Z,9.55
2022-10-29T08:03:05.013Z,8.63
2022-10-29T08:05:32.832Z,8.40
2022-10-29T08:08:00.779Z,8.32
2022-10-29T08:10:30.418Z,10.48
2022-10-29T08:13:00.035Z,14.70
2022-10-29T08:15:48.041Z,10.50
2022-10-29T08:18:16.987Z,11.07
2022-10-29T08:20:45.085Z,9.70
2022-10-29T08:23:13.694Z,8.82
2022-10-29T08:25:42.837Z,9.27
2022-10-29T08:28:14.962Z,9.45
2022-10-29T08:30:45.852Z,8.75
2022-10-29T08:33:13.804Z,10.77
2022-10-29T08:35:41.570Z,10.00
2022-10-29T08:38:09.454Z,12.70
2022-10-29T08:40:37.106Z,9.10
2022-10-29T08:43:07.859Z,8.38
2022-10-29T08:45:35.751Z,8.80
2022-10-29T08:48:12.305Z,14.40
2022-10-29T08:50:44.196Z,8.77
2022-10-29T08:53:24.043Z,9.13
2022-10-29T08:55:54.304Z,8.85
2022-10-29T08:58:31.785Z,8.80
2022-10-29T09:01:00.024Z,7.40
2022-10-29T09:03:29.644Z,8.70
2022-10-29T09:06:06.896Z,9.90
2022-10-29T09:08:58.226Z,8.60
2022-10-29T09:11:32.320Z,7.40
2022-10-29T09:14:28.434Z,8.45
2022-10-29T09:17:15.725Z,10.60
2022-10-29T09:19:56.048Z,8.57
2022-10-29T09:22:23.925Z,9.95
2022-10-29T09:25:10.371Z,10.68
2022-10-29T09:27:48.133Z,6.60
2022-10-29T09:30:22.585Z,10.85
2022-10-29T09:35:20.359Z,8.60
2022-10-29T09:37:55.310Z,8.45
2022-10-29T09:40:33.954Z,7.88
2022-10-29T09:43:07.101Z,7.28
2022-10-29T09:45:47.078Z,9.38
2022-10-29T09:48:17.812Z,9.52
2022-10-29T09:50:58.527Z,9.65
2022-10-29T09:53:26.210Z,8.52
2022-10-29T09:55:54.902Z,7.75
2022-10-29T09:58:23.904Z,8.32
2022-10-29T10:00:52.785Z,6.32
2022-10-29T10:03:26.825Z,8.40
2022-10-29T10:06:00.896Z,9.52
2022-10-29T10:08:29.169Z,7.63
2022-10-29T10:11:04.779Z,10.23
2022-10-29T10:13:32.401Z,10.02
2022-10-29T10:16:03.972Z,9.15
2022-10-29T10:18:34.355Z,8.13
2022-10-29T10:21:05.146Z,6.80
2022-10-29T10:23:43.617Z,8.85
2022-10-29T10:26:31.977Z,6.15
2022-10-29T10:29:25.929Z,10.25
2022-10-29T10:31:56.617Z,7.10
2022-10-29T10:34:25.817Z,13.30
2022-10-29T10:36:58.204Z,8.55
2022-10-29T10:39:26.171Z,7.00
2022-10-29T10:41:54.257Z,9.15
2022-10-29T10:44:22.777Z,7.45
2022-10-29T10:46:52.278Z,8.30
2022-10-29T10:49:32.210Z,9.73
2022-10-29T10:52:01.062Z,11.25
2022-10-29T10:54:36.997Z,8.82
2022-10-29T10:57:06.554Z,11.80
2022-10-29T10:59:43.903Z,11.18
2022-10-29T11:02:40.645Z,13.20
2022-10-29T11:05:17.362Z,10.70
2022-10-29T11:07:57.140Z,10.45
2022-10-29T11:10:28.899Z,13.80
2022-10-29T11:12:57.448Z,17.48
2022-10-29T11:15:35.375Z,11.85
2022-10-29T11:18:14.232Z,10.00
2022-10-29T11:20:45.566Z,11.73
2022-10-29T11:25:43.990Z,11.05
2022-10-29T11:28:14.579Z,10.02
2022-10-29T11:30:46.830Z,13.50
2022-10-29T11:33:19.554Z,16.15
2022-10-29T11:35:51.534Z,12.95
2022-10-29T11:38:28.361Z,13.60
2022-10-29T11:41:14.890Z,15.40
2022-10-29T11:43:42.689Z,11.65
2022-10-29T11:46:29.955Z,11.60
2022-10-29T11:49:18.591Z,10.52
2022-10-29T11:51:52.195Z,13.38
2022-10-29T11:54:23.206Z,9.95
2022-10-29T11:56:53.892Z,12.38
2022-10-29T11:59:27.595Z,11.57
2022-10-29T12:02:13.832Z,14.02
2022-10-29T12:04:49.249Z,16.42
2022-10-29T12:07:35.681Z,13.65
2022-10-29T12:10:08.607Z,13.30
2022-10-29T12:12:43.347Z,10.88
2022-10-29T12:15:38.384Z,11.10
2022-10-29T12:18:18.276Z,11.13
2022-10-29T12:20:51.450Z,11.95
2022-10-29T12:23:25.061Z,13.43
2022-10-29T12:26:05.210Z,10.25
2022-10-29T12:28:44.658Z,11.05
2022-10-29T12:31:12.522Z,8.20
2022-10-29T12:33:42.854Z,11.18
2022-10-29T12:36:15.317Z,10.88
2022-10-29T12:38:44.286Z,10.65
2022-10-29T12:41:30.537Z,13.05
2022-10-29T12:44:11.258Z,13.30
2022-10-29T12:46:43.424Z,12.52
2022-10-29T12:49:17.651Z,16.08
2022-10-29T12:54:28.416Z,15.10
2022-10-29T12:56:57.354Z,13.65
2022-10-29T12:59:25.264Z,17.83
2022-10-29T13:05:01.160Z,14.10
2022-10-29T13:07:29.168Z,13.77
2022-10-29T13:10:15.647Z,13.57
2022-10-29T13:13:02.018Z,14.35
2022-10-29T13:15:32.944Z,15.20
2022-10-29T13:18:05.488Z,21.23
2022-10-29T13:20:39.187Z,17.27
2022-10-29T13:23:22.364Z,16.67
2022-10-29T13:25:51.770Z,16.60
2022-10-29T13:28:19.709Z,21.88
2022-10-29T13:31:06.374Z,21.38
2022-10-29T13:33:34.181Z,23.60
2022-10-29T13:36:05.966Z,17.58
2022-10-29T13:38:38.193Z,25.13
2022-10-29T13:41:12.688Z,116.28
2022-10-29T13:43:42.052Z,187.10
2022-10-29T13:46:17.390Z,111.57
2022-10-29T13:48:46.716Z,145.77
2022-10-29T13:51:19.690Z,106.07
2022-10-29T13:53:56.329Z,108.13
2022-10-29T13:56:32.979Z,72.50
2022-10-29T13:59:01.962Z,64.35
2022-10-29T14:01:29.902Z,54.83
2022-10-29T14:04:06.945Z,136.70
2022-10-29T14:06:38.454Z,127.07
2022-10-29T14:09:12.404Z,98.43
2022-10-29T14:11:42.720Z,79.30
2022-10-29T14:14:29.459Z,46.22
2022-10-29T14:17:17.085Z,79.57
2022-10-29T14:19:45.878Z,80.38
2022-10-29T14:22:19.338Z,98.07
2022-10-29T14:24:47.247Z,60.47
2022-10-29T14:27:15.289Z,55.95
2022-10-29T14:29:43.124Z,70.28
2022-10-29T14:32:15.549Z,82.93
2022-10-29T14:34:45.344Z,49.80
2022-10-29T14:37:18.950Z,26.25
2022-10-29T14:39:57.986Z,34.75
2022-10-29T14:42:27.156Z,46.03
2022-10-29T14:44:56.580Z,26.40
2022-10-29T14:47:33.430Z,28.27
2022-10-29T14:50:03.691Z,53.08
2022-10-29T14:52:31.491Z,96.55
2022-10-29T14:55:01.833Z,75.72
2022-10-29T14:57:31.453Z,39.58
2022-10-29T15:00:06.437Z,53.65
2022-10-29T15:02:38.929Z,109.43
2022-10-29T15:05:24.394Z,63.20
2022-10-29T15:07:52.453Z,50.75
2022-10-29T15:10:26.521Z,75.38
2022-10-29T15:12:55.289Z,207.80
2022-10-29T15:15:32.806Z,366.65
2022-10-29T15:18:02.927Z,75.22
2022-10-29T15:20:40.425Z,55.30
2022-10-29T15:23:19.913Z,26.45
2022-10-29T15:25:50.298Z,45.67
2022-10-29T15:28:25.795Z,34.15
2022-10-29T15:30:55.255Z,112.13
2022-10-29T15:33:25.778Z,38.10
2022-10-29T15:35:54.984Z,59.85
2022-10-29T15:38:34.716Z,46.35
2022-10-29T15:41:20.798Z,43.50
2022-10-29T15:43:56.447Z,41.78
2022-10-29T15:46:25.594Z,71.38
2022-10-29T15:48:53.746Z,38.70
2022-10-29T15:51:24.633Z,39.95
2022-10-29T15:53:52.856Z,38.78
2022-10-29T15:56:20.487Z,43.28
2022-10-29T15:58:48.470Z,37.40
2022-10-29T16:01:17.342Z,37.42
2022-10-29T16:03:45.109Z,34.65
2022-10-29T16:06:16.414Z,31.23
2022-10-29T16:08:45.467Z,33.08
2022-10-29T16:11:15.410Z,32.63
2022-10-29T16:13:43.283Z,31.17
2022-10-29T16:16:13.398Z,32.15
2022-10-29T16:18:41.043Z,30.70
2022-10-29T16:21:09.087Z,32.83
2022-10-29T16:23:38.139Z,29.50
2022-10-29T16:26:06.086Z,33.90
2022-10-29T16:28:34.382Z,35.40
2022-10-29T16:31:02.200Z,35.88
2022-10-29T16:33:29.869Z,34.53
2022-10-29T16:36:17.994Z,36.92
2022-10-29T16:38:45.945Z,36.45
2022-10-29T16:41:17.763Z,35.13
2022-10-29T16:46:13.498Z,35.22
2022-10-29T16:48:41.607Z,38.00
2022-10-29T16:51:09.312Z,33.45
2022-10-29T16:53:37.071Z,32.25
2022-10-29T16:56:04.835Z,31.88
2022-10-29T16:58:32.707Z,34.15
2022-10-29T17:01:04.711Z,37.15
2022-10-29T17:03:33.265Z,35.50
2022-10-29T17:06:05.430Z,39.70
2022-10-29T17:08:33.899Z,37.80
2022-10-29T17:11:03.735Z,35.75
2022-10-29T17:13:31.410Z,37.55
2022-10-29T17:16:19.062Z,37.20
2022-10-29T17:18:50.727Z,38.58
2022-10-29T17:21:19.002Z,44.22
2022-10-29T17:23:46.601Z,44.22
2022-10-29T17:26:14.965Z,43.42
2022-10-29T17:28:43.193Z,38.83
2022-10-29T17:31:12.247Z,40.85
2022-10-29T17:33:40.728Z,39.75
2022-10-29T17:36:11.614Z,37.28
2022-10-29T17:38:39.911Z,34.28
2022-10-29T17:41:07.663Z,34.30
2022-10-29T17:43:36.617Z,35.60
2022-10-29T17:46:04.557Z,41.08
2022-10-29T17:48:32.126Z,35.20
2022-10-29T17:51:20.747Z,41.40
2022-10-29T17:53:48.343Z,39.28
2022-10-29T17:56:16.168Z,39.33
2022-10-29T17:58:44.094Z,42.00
2022-10-29T18:01:12.102Z,38.90
2022-10-29T18:03:40.004Z,38.67
2022-10-29T18:06:09.150Z,38.67
2022-10-29T18:08:37.823Z,40.13
2022-10-29T18:11:10.282Z,39.55
2022-10-29T18:13:41.318Z,43.05
2022-10-29T18:16:09.814Z,46.25
2022-10-29T18:18:48.349Z,43.97
2022-10-29T18:21:26.681Z,39.22
2022-10-29T18:23:54.561Z,41.75
2022-10-29T18:26:35.995Z,46.00
2022-10-29T18:31:32.680Z,42.90
2022-10-29T18:34:01.299Z,42.20
2022-10-29T18:36:29.359Z,41.60
2022-10-29T18:38:57.588Z,40.60
2022-10-29T18:41:25.631Z,40.80
2022-10-29T18:43:54.512Z,38.67
2022-10-29T18:46:22.582Z,43.10
2022-10-29T18:48:50.919Z,39.15
2022-10-29T18:51:26.297Z,38.22
2022-10-29T18:53:54.916Z,41.17
2022-10-29T18:56:23.963Z,51.03
2022-10-29T18:58:51.998Z,48.28
2022-10-29T19:01:22.642Z,42.92
2022-10-29T19:03:51.615Z,42.15
2022-10-29T19:06:20.246Z,44.20
2022-10-29T19:08:48.490Z,41.10
2022-10-29T19:11:17.439Z,41.53
2022-10-29T19:13:50.109Z,40.03
2022-10-29T19:16:17.759Z,43.95
2022-10-29T19:18:45.685Z,40.92
2022-10-29T19:21:15.156Z,38.08
2022-10-29T19:23:43.485Z,40.72
2022-10-29T19:26:12.667Z,41.63
2022-10-29T19:28:41.462Z,40.92
2022-10-29T19:31:28.716Z,44.92
2022-10-29T19:33:57.755Z,40.03
2022-10-29T19:36:26.727Z,39.47
2022-10-29T19:38:55.129Z,40.00
2022-10-29T19:41:22.832Z,42.30
2022-10-29T19:43:50.931Z,38.78
2022-10-29T19:46:19.687Z,41.63
2022-10-29T19:48:51.349Z,35.58
2022-10-29T19:51:19.454Z,37.25
2022-10-29T19:53:48.320Z,35.90
2022-10-29T19:56:17.275Z,40.50
2022-10-29T19:58:45.717Z,41.78
2022-10-29T20:01:16.314Z,38.17
2022-10-29T20:03:44.427Z,36.33
2022-10-29T20:06:12.376Z,36.00
2022-10-29T20:08:41.085Z,36.03
2022-10-29T20:11:09.121Z,39.85
2022-10-29T20:13:56.499Z,33.67
2022-10-29T20:16:24.430Z,35.50
2022-10-29T20:18:52.571Z,47.67
2022-10-29T20:21:20.234Z,41.63
2022-10-29T20:23:48.361Z,41.22
2022-10-29T20:26:16.378Z,38.33
2022-10-29T20:28:44.091Z,38.53
2022-10-29T20:31:12.734Z,38.28
2022-10-29T20:33:40.702Z,40.05
2022-10-29T20:36:30.734Z,39.47
2022-10-29T20:38:58.805Z,36.97
2022-10-29T20:41:26.711Z,43.25
2022-10-29T20:43:55.599Z,40.17
2022-10-29T20:46:24.128Z,36.72
2022-10-29T20:48:51.760Z,41.53
2022-10-29T20:51:19.393Z,35.90
2022-10-29T20:53:47.294Z,39.33
2022-10-29T20:56:16.485Z,31.60
2022-10-29T20:58:44.978Z,33.85
2022-10-29T21:01:14.684Z,33.42
2022-10-29T21:03:42.828Z,31.33
2022-10-29T21:08:59.406Z,29.33
2022-10-29T21:11:27.074Z,35.90
2022-10-29T21:13:54.969Z,28.50
2022-10-29T21:16:23.961Z,27.42
2022-10-29T21:18:52.824Z,28.10
2022-10-29T21:21:20.857Z,31.38
2022-10-29T21:23:49.039Z,29.38
2022-10-29T21:26:18.222Z,32.78
2022-10-29T21:28:46.099Z,32.47
2022-10-29T21:31:13.650Z,32.35
2022-10-29T21:33:42.671Z,31.27
2022-10-29T21:36:13.961Z,29.25
2022-10-29T21:39:00.870Z,41.08
2022-10-29T21:41:28.895Z,150.07
2022-10-29T21:43:59.179Z,74.35
2022-10-29T21:46:28.831Z,52.22
2022-10-29T21:48:56.786Z,32.08
2022-10-29T21:51:24.451Z,33.38
2022-10-29T21:53:52.237Z,44.35
2022-10-29T21:56:19.962Z,39.53
2022-10-29T21:58:47.738Z,38.53
2022-10-29T22:01:35.830Z,40.92
2022-10-29T22:04:03.660Z,39.15
2022-10-29T22:06:31.480Z,40.17
2022-10-29T22:09:00.153Z,33.10
2022-10-29T22:11:28.443Z,56.90
2022-10-29T22:13:56.484Z,45.08
2022-10-29T22:16:24.241Z,46.92
2022-10-29T22:18:52.123Z,47.72
2022-10-29T22:21:38.805Z,49.92
2022-10-29T22:24:06.639Z,42.65
2022-10-29T22:26:34.900Z,55.00
2022-10-29T22:29:02.695Z,45.78
2022-10-29T22:31:30.506Z,47.08
2022-10-29T22:33:58.120Z,44.80
2022-10-29T22:36:26.715Z,44.70
2022-10-29T22:38:58.380Z,35.65
2022-10-29T22:41:26.288Z,36.25
2022-10-29T22:43:53.953Z,29.50
2022-10-29T22:46:22.467Z,34.97
2022-10-29T22:48:50.163Z,32.08
2022-10-29T22:51:21.751Z,31.88
2022-10-29T22:53:50.226Z,43.70
2022-10-29T22:56:19.107Z,34.10
2022-10-29T22:59:06.979Z,31.23
2022-10-29T23:01:38.840Z,33.42
2022-10-29T23:04:10.188Z,41.05
2022-10-29T23:06:37.892Z,40.58
2022-10-29T23:09:05.595Z,38.47
2022-10-29T23:11:35.131Z,48.88
2022-10-29T23:14:03.012Z,36.13
2022-10-29T23:16:32.769Z,39.15
2022-10-29T23:19:01.871Z,39.90
2022-10-29T23:21:29.981Z,37.35
2022-10-29T23:23:57.850Z,61.13
2022-10-29T23:26:26.712Z,46.33
2022-10-29T23:28:54.485Z,44.80
2022-10-29T23:31:25.268Z,52.40
2022-10-29T23:33:54.590Z,56.10
2022-10-29T23:36:23.520Z,44.40
2022-10-29T23:38:55.373Z,33.17
2022-10-29T23:41:27.553Z,78.93
2022-10-29T23:43:55.347Z,51.30
2022-10-29T23:46:42.567Z,59.20
2022-10-29T23:49:10.637Z,42.92
2022-10-29T23:51:38.239Z,42.42
2022-10-29T23:54:05.914Z,51.97
2022-10-29T23:56:33.958Z,43.85
2022-10-29T23:59:01.503Z,60.85
